AUA115 LOWI-LFPG
Flight info
| Callsign | AUA115 |
|---|---|
| Flight time | 1h 17m |
| Altitude | 32000 |
| Route | KPT L856 RAVED Y112 HOC/N0429F350 DCT MOROK DCT PENDU DCT JAVVU DCT GIVRI/N0433F380 DCT TINIL |
| Aircraft | A320/M-SDE3FGHIRWY/LB1 |
Departure
| Time | 2026-05-01 11:50 |
|---|---|
| Airport | Innsbruck Airport (LOWI) |
Arrival
| Time | 2026-05-01 13:07 |
|---|---|
| Airport | Charles de Gaulle International Airport (LFPG) |
| Time | Latitude | Longitude | Altitude | Speed | Heading |
|---|---|---|---|---|---|
| 2026-05-01 11:27 | 47.25903 | 11.35367 | 1907 ft | 0 kts | 261° |
| 2026-05-01 11:44 | 47.25903 | 11.35320 | 1907 ft | 7 kts | 292° |
| 2026-05-01 11:44 | 47.25944 | 11.35292 | 1899 ft | 6 kts | 5° |
| 2026-05-01 11:45 | 47.25949 | 11.35280 | 1900 ft | 0 kts | 249° |
| 2026-05-01 11:45 | 47.25945 | 11.35279 | 1900 ft | 1 kts | 213° |
| 2026-05-01 11:45 | 47.25938 | 11.35282 | 1899 ft | 3 kts | 174° |
| 2026-05-01 11:45 | 47.25910 | 11.35271 | 1901 ft | 6 kts | 231° |
| 2026-05-01 11:46 | 47.25893 | 11.35192 | 1899 ft | 10 kts | 261° |
| 2026-05-01 11:46 | 47.25880 | 11.35065 | 1896 ft | 15 kts | 261° |
| 2026-05-01 11:46 | 47.25862 | 11.34895 | 1897 ft | 19 kts | 260° |
| 2026-05-01 11:46 | 47.25840 | 11.34704 | 1907 ft | 18 kts | 261° |
| 2026-05-01 11:47 | 47.25822 | 11.34532 | 1895 ft | 16 kts | 261° |
| 2026-05-01 11:47 | 47.25805 | 11.34378 | 1896 ft | 14 kts | 261° |
| 2026-05-01 11:47 | 47.25790 | 11.34240 | 1898 ft | 13 kts | 261° |
| 2026-05-01 11:47 | 47.25777 | 11.34117 | 1896 ft | 11 kts | 261° |
| 2026-05-01 11:48 | 47.25771 | 11.34012 | 1901 ft | 10 kts | 280° |
| 2026-05-01 11:48 | 47.25790 | 11.33925 | 1901 ft | 9 kts | 299° |
| 2026-05-01 11:48 | 47.25846 | 11.33808 | 1898 ft | 20 kts | 307° |
| 2026-05-01 11:48 | 47.25923 | 11.33711 | 1909 ft | 8 kts | 24° |
| 2026-05-01 11:49 | 47.25953 | 11.33780 | 1899 ft | 9 kts | 81° |
| 2026-05-01 11:49 | 47.25971 | 11.33945 | 1906 ft | 35 kts | 82° |
| 2026-05-01 11:49 | 47.26051 | 11.34672 | 1906 ft | 105 kts | 81° |
| 2026-05-01 11:49 | 47.26195 | 11.35999 | 1985 ft | 150 kts | 81° |
| 2026-05-01 11:50 | 47.26355 | 11.37524 | 2695 ft | 150 kts | 82° |
| 2026-05-01 11:50 | 47.26488 | 11.39109 | 3339 ft | 161 kts | 81° |
| 2026-05-01 11:50 | 47.26648 | 11.40790 | 3875 ft | 176 kts | 80° |
| 2026-05-01 11:50 | 47.26844 | 11.42700 | 4159 ft | 199 kts | 82° |
| 2026-05-01 11:51 | 47.27078 | 11.44840 | 4460 ft | 226 kts | 78° |
| 2026-05-01 11:51 | 47.27581 | 11.47160 | 5005 ft | 249 kts | 70° |
| 2026-05-01 11:51 | 47.28267 | 11.49618 | 5677 ft | 267 kts | 66° |
| 2026-05-01 11:51 | 47.29012 | 11.52155 | 6617 ft | 271 kts | 68° |
| 2026-05-01 11:52 | 47.29534 | 11.54864 | 7573 ft | 274 kts | 84° |
| 2026-05-01 11:52 | 47.29233 | 11.57569 | 8552 ft | 275 kts | 115° |
| 2026-05-01 11:52 | 47.28012 | 11.59748 | 9471 ft | 283 kts | 142° |
| 2026-05-01 11:52 | 47.26178 | 11.60865 | 10396 ft | 292 kts | 169° |
| 2026-05-01 11:53 | 47.24144 | 11.60600 | 11246 ft | 302 kts | 198° |
| 2026-05-01 11:53 | 47.22390 | 11.58863 | 12001 ft | 314 kts | 229° |
| 2026-05-01 11:53 | 47.21379 | 11.56013 | 12722 ft | 319 kts | 259° |
| 2026-05-01 11:53 | 47.21354 | 11.52769 | 13355 ft | 326 kts | 281° |
| 2026-05-01 11:54 | 47.21855 | 11.49408 | 13590 ft | 347 kts | 288° |
| 2026-05-01 11:54 | 47.22622 | 11.45993 | 14181 ft | 354 kts | 293° |
| 2026-05-01 11:54 | 47.23363 | 11.42490 | 14742 ft | 363 kts | 285° |
| 2026-05-01 11:54 | 47.23800 | 11.38796 | 15381 ft | 369 kts | 280° |
| 2026-05-01 11:55 | 47.24141 | 11.35045 | 16049 ft | 371 kts | 282° |
| 2026-05-01 11:55 | 47.24712 | 11.31332 | 16699 ft | 373 kts | 288° |
| 2026-05-01 11:55 | 47.25448 | 11.27656 | 17351 ft | 376 kts | 291° |
| 2026-05-01 11:55 | 47.26297 | 11.24003 | 18019 ft | 379 kts | 293° |
| 2026-05-01 11:56 | 47.27209 | 11.20348 | 18656 ft | 382 kts | 293° |
| 2026-05-01 11:56 | 47.28149 | 11.16671 | 19228 ft | 385 kts | 294° |
| 2026-05-01 11:56 | 47.29087 | 11.12964 | 19793 ft | 388 kts | 293° |
| 2026-05-01 11:56 | 47.30013 | 11.09219 | 20390 ft | 390 kts | 292° |
| 2026-05-01 11:57 | 47.30930 | 11.05438 | 20973 ft | 393 kts | 292° |
| 2026-05-01 11:57 | 47.31841 | 11.01631 | 21529 ft | 395 kts | 292° |
| 2026-05-01 11:57 | 47.32748 | 10.97796 | 22066 ft | 397 kts | 292° |
| 2026-05-01 11:57 | 47.33658 | 10.93942 | 22594 ft | 400 kts | 292° |
| 2026-05-01 11:58 | 47.34572 | 10.90057 | 23127 ft | 402 kts | 292° |
| 2026-05-01 11:58 | 47.35491 | 10.86154 | 23645 ft | 405 kts | 292° |
| 2026-05-01 11:58 | 47.37359 | 10.78281 | 24565 ft | 408 kts | 294° |
| 2026-05-01 11:59 | 47.38593 | 10.74529 | 24996 ft | 406 kts | 305° |
| 2026-05-01 11:59 | 47.40254 | 10.71173 | 25419 ft | 404 kts | 315° |
| 2026-05-01 11:59 | 47.42276 | 10.68311 | 25828 ft | 403 kts | 324° |
| 2026-05-01 12:00 | 47.46868 | 10.63542 | 26634 ft | 406 kts | 328° |
| 2026-05-01 12:00 | 47.49195 | 10.61164 | 27052 ft | 407 kts | 328° |
| 2026-05-01 12:00 | 47.53850 | 10.56395 | 27820 ft | 412 kts | 328° |
| 2026-05-01 12:01 | 47.56212 | 10.53968 | 28218 ft | 415 kts | 328° |
| 2026-05-01 12:01 | 47.58583 | 10.51526 | 28592 ft | 417 kts | 328° |
| 2026-05-01 12:01 | 47.60970 | 10.49064 | 28938 ft | 419 kts | 328° |
| 2026-05-01 12:01 | 47.63371 | 10.46589 | 29320 ft | 421 kts | 328° |
| 2026-05-01 12:02 | 47.65783 | 10.44102 | 29695 ft | 423 kts | 328° |
| 2026-05-01 12:02 | 47.68202 | 10.41593 | 30061 ft | 426 kts | 326° |
| 2026-05-01 12:02 | 47.70422 | 10.38638 | 30390 ft | 433 kts | 314° |
| 2026-05-01 12:02 | 47.72217 | 10.35024 | 30666 ft | 439 kts | 303° |
| 2026-05-01 12:03 | 47.73510 | 10.30883 | 30927 ft | 446 kts | 291° |
| 2026-05-01 12:03 | 47.74216 | 10.26365 | 31194 ft | 453 kts | 279° |
| 2026-05-01 12:03 | 47.74294 | 10.21667 | 31458 ft | 458 kts | 270° |
| 2026-05-01 12:03 | 47.74177 | 10.16929 | 31721 ft | 460 kts | 270° |
| 2026-05-01 12:04 | 47.74061 | 10.12174 | 32049 ft | 460 kts | 270° |
| 2026-05-01 12:04 | 47.73947 | 10.07431 | 32277 ft | 459 kts | 270° |
| 2026-05-01 12:04 | 47.73833 | 10.02751 | 32318 ft | 445 kts | 270° |
| 2026-05-01 12:05 | 47.73610 | 9.93754 | 32322 ft | 431 kts | 270° |
| 2026-05-01 12:05 | 47.73281 | 9.80443 | 32325 ft | 429 kts | 270° |
| 2026-05-01 12:06 | 47.73046 | 9.71591 | 32328 ft | 429 kts | 270° |
| 2026-05-01 12:06 | 47.72419 | 9.62771 | 32330 ft | 430 kts | 262° |
| 2026-05-01 12:07 | 47.71347 | 9.54055 | 32329 ft | 429 kts | 262° |
| 2026-05-01 12:07 | 47.70272 | 9.45345 | 32318 ft | 429 kts | 262° |
| 2026-05-01 12:08 | 47.69193 | 9.36637 | 32312 ft | 429 kts | 261° |
| 2026-05-01 12:08 | 47.68107 | 9.27941 | 32309 ft | 429 kts | 261° |
| 2026-05-01 12:09 | 47.67011 | 9.19259 | 32304 ft | 428 kts | 261° |
| 2026-05-01 12:09 | 47.65914 | 9.10589 | 32312 ft | 428 kts | 261° |
| 2026-05-01 12:10 | 47.64266 | 8.97656 | 32305 ft | 427 kts | 261° |
| 2026-05-01 12:11 | 47.62622 | 8.84921 | 32310 ft | 427 kts | 261° |
| 2026-05-01 12:11 | 47.61488 | 8.76190 | 32308 ft | 427 kts | 260° |
| 2026-05-01 12:12 | 47.60549 | 8.68963 | 32315 ft | 426 kts | 260° |
| 2026-05-01 12:12 | 47.59422 | 8.60347 | 32317 ft | 426 kts | 260° |
| 2026-05-01 12:13 | 47.58288 | 8.51756 | 32317 ft | 426 kts | 260° |
| 2026-05-01 12:13 | 47.57139 | 8.43143 | 32309 ft | 425 kts | 260° |
| 2026-05-01 12:14 | 47.56001 | 8.34598 | 32296 ft | 425 kts | 259° |
| 2026-05-01 12:14 | 47.54846 | 8.25977 | 32301 ft | 424 kts | 259° |
| 2026-05-01 12:15 | 47.53683 | 8.17416 | 32299 ft | 424 kts | 259° |
| 2026-05-01 12:15 | 47.52515 | 8.08868 | 32301 ft | 424 kts | 259° |
| 2026-05-01 12:16 | 47.51346 | 8.00318 | 32290 ft | 424 kts | 259° |
| 2026-05-01 12:16 | 47.50171 | 7.91785 | 32290 ft | 423 kts | 259° |
| 2026-05-01 12:17 | 47.48994 | 7.83256 | 32282 ft | 423 kts | 259° |
| 2026-05-01 12:17 | 47.47808 | 7.74731 | 32283 ft | 423 kts | 259° |
| 2026-05-01 12:18 | 47.46657 | 7.66208 | 32281 ft | 423 kts | 263° |
| 2026-05-01 12:18 | 47.46073 | 7.57577 | 32281 ft | 422 kts | 265° |
| 2026-05-01 12:19 | 47.45503 | 7.49001 | 32272 ft | 422 kts | 264° |
| 2026-05-01 12:19 | 47.44936 | 7.40439 | 32273 ft | 422 kts | 264° |
| 2026-05-01 12:20 | 47.44354 | 7.31814 | 32279 ft | 422 kts | 264° |
| 2026-05-01 12:20 | 47.43774 | 7.23329 | 32279 ft | 422 kts | 264° |
| 2026-05-01 12:21 | 47.43184 | 7.14707 | 32276 ft | 422 kts | 264° |
| 2026-05-01 12:21 | 47.42601 | 7.06361 | 32273 ft | 422 kts | 263° |
| 2026-05-01 12:22 | 47.41994 | 6.97702 | 32279 ft | 422 kts | 263° |
| 2026-05-01 12:22 | 47.41380 | 6.89154 | 32283 ft | 421 kts | 263° |
| 2026-05-01 12:23 | 47.40758 | 6.80561 | 32281 ft | 421 kts | 263° |
| 2026-05-01 12:23 | 47.40143 | 6.72068 | 32282 ft | 420 kts | 263° |
| 2026-05-01 12:24 | 47.39518 | 6.63544 | 32283 ft | 420 kts | 262° |
| 2026-05-01 12:24 | 47.38876 | 6.54966 | 32282 ft | 419 kts | 262° |
| 2026-05-01 12:25 | 47.37914 | 6.42117 | 32284 ft | 432 kts | 262° |
| 2026-05-01 12:26 | 47.37231 | 6.33111 | 32286 ft | 451 kts | 262° |
| 2026-05-01 12:26 | 47.36513 | 6.23763 | 32277 ft | 466 kts | 262° |
| 2026-05-01 12:26 | 47.36139 | 6.18992 | 32276 ft | 470 kts | 261° |
| 2026-05-01 12:27 | 47.34998 | 6.04572 | 32266 ft | 475 kts | 261° |
| 2026-05-01 12:28 | 47.33768 | 5.90029 | 32264 ft | 477 kts | 261° |
| 2026-05-01 12:29 | 47.32563 | 5.75470 | 32253 ft | 477 kts | 261° |
| 2026-05-01 12:29 | 47.31423 | 5.60896 | 32238 ft | 477 kts | 261° |
| 2026-05-01 12:30 | 47.30231 | 5.46337 | 32243 ft | 478 kts | 263° |
| 2026-05-01 12:30 | 47.30339 | 5.41435 | 32242 ft | 482 kts | 278° |
| 2026-05-01 12:31 | 47.31315 | 5.36703 | 32252 ft | 487 kts | 293° |
| 2026-05-01 12:31 | 47.33126 | 5.32475 | 32247 ft | 491 kts | 309° |
| 2026-05-01 12:31 | 47.35649 | 5.29081 | 32242 ft | 494 kts | 325° |
| 2026-05-01 12:32 | 47.41634 | 5.24045 | 32237 ft | 496 kts | 330° |
| 2026-05-01 12:32 | 47.50709 | 5.16625 | 32233 ft | 498 kts | 330° |
| 2026-05-01 12:33 | 47.56767 | 5.11631 | 32232 ft | 499 kts | 330° |
| 2026-05-01 12:33 | 47.59700 | 5.08873 | 31653 ft | 499 kts | 321° |
| 2026-05-01 12:33 | 47.62354 | 5.05603 | 31048 ft | 489 kts | 319° |
| 2026-05-01 12:34 | 47.64870 | 5.02436 | 30841 ft | 462 kts | 319° |
| 2026-05-01 12:34 | 47.67279 | 4.99395 | 30153 ft | 449 kts | 319° |
| 2026-05-01 12:34 | 47.69639 | 4.96412 | 29215 ft | 441 kts | 319° |
| 2026-05-01 12:34 | 47.71953 | 4.93485 | 28470 ft | 434 kts | 319° |
| 2026-05-01 12:35 | 47.74230 | 4.90613 | 28130 ft | 425 kts | 319° |
| 2026-05-01 12:35 | 47.76452 | 4.87809 | 27916 ft | 414 kts | 319° |
| 2026-05-01 12:35 | 47.78625 | 4.85063 | 27332 ft | 406 kts | 319° |
| 2026-05-01 12:35 | 47.80757 | 4.82361 | 26882 ft | 401 kts | 319° |
| 2026-05-01 12:36 | 47.82870 | 4.79674 | 26480 ft | 398 kts | 319° |
| 2026-05-01 12:36 | 47.84967 | 4.77004 | 26083 ft | 395 kts | 319° |
| 2026-05-01 12:36 | 47.87047 | 4.74356 | 25688 ft | 393 kts | 319° |
| 2026-05-01 12:36 | 47.89122 | 4.71713 | 25292 ft | 390 kts | 319° |
| 2026-05-01 12:37 | 47.91176 | 4.69089 | 24908 ft | 388 kts | 318° |
| 2026-05-01 12:37 | 47.93216 | 4.66479 | 24519 ft | 385 kts | 319° |
| 2026-05-01 12:37 | 47.95247 | 4.63881 | 24146 ft | 385 kts | 318° |
| 2026-05-01 12:37 | 47.97275 | 4.61284 | 23740 ft | 384 kts | 318° |
| 2026-05-01 12:38 | 47.99297 | 4.58696 | 23323 ft | 382 kts | 318° |
| 2026-05-01 12:38 | 48.01303 | 4.56124 | 22941 ft | 379 kts | 318° |
| 2026-05-01 12:38 | 48.03301 | 4.53561 | 22561 ft | 377 kts | 318° |
| 2026-05-01 12:38 | 48.05283 | 4.51014 | 22186 ft | 375 kts | 318° |
| 2026-05-01 12:39 | 48.07249 | 4.48479 | 21810 ft | 372 kts | 318° |
| 2026-05-01 12:39 | 48.09204 | 4.45956 | 21437 ft | 370 kts | 318° |
| 2026-05-01 12:39 | 48.11148 | 4.43448 | 21069 ft | 368 kts | 318° |
| 2026-05-01 12:39 | 48.13083 | 4.40950 | 20701 ft | 366 kts | 318° |
| 2026-05-01 12:40 | 48.15002 | 4.38473 | 20338 ft | 363 kts | 318° |
| 2026-05-01 12:40 | 48.16907 | 4.36011 | 19979 ft | 361 kts | 318° |
| 2026-05-01 12:40 | 48.18801 | 4.33560 | 19618 ft | 358 kts | 317° |
| 2026-05-01 12:40 | 48.20682 | 4.31122 | 19260 ft | 356 kts | 317° |
| 2026-05-01 12:41 | 48.22547 | 4.28694 | 18906 ft | 354 kts | 317° |
| 2026-05-01 12:41 | 48.24404 | 4.26277 | 18557 ft | 353 kts | 317° |
| 2026-05-01 12:41 | 48.26223 | 4.23819 | 18167 ft | 351 kts | 311° |
| 2026-05-01 12:41 | 48.27798 | 4.21048 | 17816 ft | 348 kts | 307° |
| 2026-05-01 12:42 | 48.29338 | 4.18242 | 17465 ft | 347 kts | 307° |
| 2026-05-01 12:42 | 48.30871 | 4.15452 | 17127 ft | 346 kts | 307° |
| 2026-05-01 12:42 | 48.32397 | 4.12671 | 16774 ft | 344 kts | 307° |
| 2026-05-01 12:42 | 48.33915 | 4.09902 | 16430 ft | 342 kts | 308° |
| 2026-05-01 12:43 | 48.35376 | 4.07236 | 16104 ft | 341 kts | 308° |
| 2026-05-01 12:43 | 48.36877 | 4.04496 | 15798 ft | 338 kts | 308° |
| 2026-05-01 12:43 | 48.38369 | 4.01774 | 15491 ft | 336 kts | 308° |
| 2026-05-01 12:43 | 48.39851 | 3.99067 | 15184 ft | 334 kts | 308° |
| 2026-05-01 12:44 | 48.41303 | 3.96407 | 14885 ft | 332 kts | 308° |
| 2026-05-01 12:44 | 48.42784 | 3.93688 | 14583 ft | 331 kts | 308° |
| 2026-05-01 12:44 | 48.45684 | 3.88345 | 13965 ft | 328 kts | 308° |
| 2026-05-01 12:45 | 48.48539 | 3.83085 | 13350 ft | 324 kts | 308° |
| 2026-05-01 12:45 | 48.49978 | 3.80428 | 13050 ft | 322 kts | 308° |
| 2026-05-01 12:45 | 48.51386 | 3.77823 | 12743 ft | 320 kts | 308° |
| 2026-05-01 12:46 | 48.52785 | 3.75234 | 12465 ft | 318 kts | 308° |
| 2026-05-01 12:46 | 48.54139 | 3.72615 | 12178 ft | 315 kts | 302° |
| 2026-05-01 12:46 | 48.55320 | 3.69855 | 12034 ft | 313 kts | 301° |
| 2026-05-01 12:46 | 48.56507 | 3.67096 | 11885 ft | 312 kts | 301° |
| 2026-05-01 12:47 | 48.57689 | 3.64353 | 11716 ft | 311 kts | 302° |
| 2026-05-01 12:47 | 48.58867 | 3.61621 | 11554 ft | 310 kts | 302° |
| 2026-05-01 12:47 | 48.60028 | 3.58929 | 11397 ft | 309 kts | 302° |
| 2026-05-01 12:47 | 48.61143 | 3.56177 | 11230 ft | 306 kts | 294° |
| 2026-05-01 12:48 | 48.61943 | 3.53212 | 11123 ft | 304 kts | 289° |
| 2026-05-01 12:48 | 48.62699 | 3.50229 | 10997 ft | 303 kts | 289° |
| 2026-05-01 12:48 | 48.63455 | 3.47255 | 10884 ft | 303 kts | 289° |
| 2026-05-01 12:48 | 48.64214 | 3.44282 | 10763 ft | 303 kts | 289° |
| 2026-05-01 12:49 | 48.64950 | 3.41400 | 10647 ft | 302 kts | 289° |
| 2026-05-01 12:49 | 48.65730 | 3.38348 | 10532 ft | 302 kts | 289° |
| 2026-05-01 12:49 | 48.66481 | 3.35393 | 10409 ft | 301 kts | 289° |
| 2026-05-01 12:49 | 48.67228 | 3.32442 | 10293 ft | 300 kts | 289° |
| 2026-05-01 12:50 | 48.67974 | 3.29493 | 10169 ft | 299 kts | 289° |
| 2026-05-01 12:50 | 48.68718 | 3.26557 | 10052 ft | 298 kts | 289° |
| 2026-05-01 12:50 | 48.69460 | 3.23628 | 9937 ft | 297 kts | 289° |
| 2026-05-01 12:50 | 48.70196 | 3.20709 | 9825 ft | 297 kts | 289° |
| 2026-05-01 12:51 | 48.70930 | 3.17787 | 9702 ft | 296 kts | 289° |
| 2026-05-01 12:51 | 48.71663 | 3.14880 | 9590 ft | 295 kts | 289° |
| 2026-05-01 12:51 | 48.73122 | 3.09075 | 9357 ft | 294 kts | 289° |
| 2026-05-01 12:52 | 48.73847 | 3.06179 | 9235 ft | 293 kts | 289° |
| 2026-05-01 12:52 | 48.75291 | 3.00400 | 9020 ft | 293 kts | 289° |
| 2026-05-01 12:52 | 48.76011 | 2.97515 | 8900 ft | 292 kts | 289° |
| 2026-05-01 12:53 | 48.77447 | 2.91763 | 8674 ft | 291 kts | 288° |
| 2026-05-01 12:53 | 48.78159 | 2.88896 | 8560 ft | 290 kts | 288° |
| 2026-05-01 12:53 | 48.78865 | 2.86052 | 8454 ft | 290 kts | 288° |
| 2026-05-01 12:54 | 48.79574 | 2.83194 | 8335 ft | 289 kts | 288° |
| 2026-05-01 12:54 | 48.80750 | 2.78454 | 8139 ft | 288 kts | 288° |
| 2026-05-01 12:54 | 48.81455 | 2.75605 | 8033 ft | 288 kts | 288° |
| 2026-05-01 12:55 | 48.82857 | 2.69941 | 7796 ft | 286 kts | 288° |
| 2026-05-01 12:55 | 48.83552 | 2.67117 | 7698 ft | 285 kts | 288° |
| 2026-05-01 12:55 | 48.84244 | 2.64296 | 7582 ft | 285 kts | 288° |
| 2026-05-01 12:56 | 48.84936 | 2.61479 | 7480 ft | 285 kts | 288° |
| 2026-05-01 12:56 | 48.85624 | 2.58664 | 7363 ft | 284 kts | 288° |
| 2026-05-01 12:56 | 48.86311 | 2.55858 | 7260 ft | 284 kts | 288° |
| 2026-05-01 12:56 | 48.86999 | 2.53053 | 7137 ft | 283 kts | 288° |
| 2026-05-01 12:57 | 48.87684 | 2.50257 | 7028 ft | 283 kts | 288° |
| 2026-05-01 12:57 | 48.89048 | 2.44671 | 6808 ft | 281 kts | 288° |
| 2026-05-01 12:57 | 48.89727 | 2.41888 | 6702 ft | 281 kts | 288° |
| 2026-05-01 12:58 | 48.90404 | 2.39111 | 6595 ft | 280 kts | 288° |
| 2026-05-01 12:58 | 48.91077 | 2.36343 | 6461 ft | 279 kts | 288° |
| 2026-05-01 12:58 | 48.91747 | 2.33582 | 6370 ft | 278 kts | 288° |
| 2026-05-01 12:59 | 48.93081 | 2.28070 | 6157 ft | 277 kts | 288° |
| 2026-05-01 12:59 | 48.93733 | 2.25379 | 6049 ft | 264 kts | 288° |
| 2026-05-01 12:59 | 48.94936 | 2.20393 | 5860 ft | 239 kts | 288° |
| 2026-05-01 13:00 | 48.96046 | 2.15768 | 5662 ft | 231 kts | 287° |
| 2026-05-01 13:00 | 48.96585 | 2.13526 | 5592 ft | 230 kts | 287° |
| 2026-05-01 13:01 | 48.97911 | 2.09094 | 5429 ft | 232 kts | 316° |
| 2026-05-01 13:01 | 48.99365 | 2.08111 | 5374 ft | 235 kts | 358° |
| 2026-05-01 13:01 | 49.01761 | 2.10773 | 5277 ft | 226 kts | 83° |
| 2026-05-01 13:02 | 49.01560 | 2.13053 | 5231 ft | 218 kts | 119° |
| 2026-05-01 13:07 | 48.99572 | 2.55298 | 389 ft | 137 kts | 86° |
| 2026-05-01 13:07 | 48.99639 | 2.56597 | 361 ft | 93 kts | 85° |
| 2026-05-01 13:07 | 48.99698 | 2.57333 | 351 ft | 38 kts | 68° |
| 2026-05-01 13:08 | 48.99793 | 2.57633 | 358 ft | 29 kts | 64° |
| 2026-05-01 13:08 | 48.99851 | 2.57819 | 358 ft | 19 kts | 66° |
| 2026-05-01 13:08 | 48.99903 | 2.58018 | 357 ft | 21 kts | 77° |
| 2026-05-01 13:08 | 48.99921 | 2.58244 | 362 ft | 19 kts | 66° |
| 2026-05-01 13:09 | 49.00029 | 2.58316 | 357 ft | 17 kts | 26° |
| 2026-05-01 13:09 | 49.00087 | 2.58244 | 356 ft | 10 kts | 269° |
| 2026-05-01 13:09 | 49.00120 | 2.58199 | 358 ft | 6 kts | 358° |
| 2026-05-01 13:09 | 49.00146 | 2.58207 | 362 ft | 0 kts | 18° |